createdAt,value
2018-06-02T00:02:10.744Z,75.90
2018-06-02T00:04:37.948Z,75.80
2018-06-02T00:07:06.017Z,75.90
2018-06-02T00:09:33.297Z,75.80
2018-06-02T00:12:00.462Z,76.20
2018-06-02T00:14:28.616Z,75.80
2018-06-02T00:16:55.835Z,75.80
2018-06-02T00:19:24.680Z,76.20
2018-06-02T00:21:52.759Z,76.20
2018-06-02T00:24:19.920Z,77.30
2018-06-02T00:26:47.137Z,77.00
2018-06-02T00:29:14.295Z,77.00
2018-06-02T00:31:42.239Z,77.60
2018-06-02T00:34:09.439Z,76.70
2018-06-02T00:36:36.603Z,75.80
2018-06-02T00:39:04.631Z,76.70
2018-06-02T00:41:31.880Z,76.60
2018-06-02T00:43:59.044Z,75.90
2018-06-02T00:46:26.293Z,76.30
2018-06-02T00:48:53.549Z,75.70
2018-06-02T00:51:20.715Z,75.90
2018-06-02T00:53:47.876Z,75.50
2018-06-02T00:56:15.044Z,75.60
2018-06-02T00:58:42.205Z,75.40
2018-06-02T01:01:10.144Z,75.40
2018-06-02T01:03:38.225Z,75.40
2018-06-02T01:06:06.283Z,75.90
2018-06-02T01:08:34.353Z,75.40
2018-06-02T01:11:02.460Z,75.60
2018-06-02T01:13:30.387Z,75.40
2018-06-02T01:15:57.547Z,75.40
2018-06-02T01:18:24.711Z,75.70
2018-06-02T01:20:51.908Z,75.40
2018-06-02T01:23:19.855Z,75.70
2018-06-02T01:25:48.693Z,75.50
2018-06-02T01:28:16.791Z,75.50
2018-06-02T01:30:43.955Z,75.60
2018-06-02T01:33:11.159Z,75.40
2018-06-02T01:35:38.328Z,75.30
2018-06-02T01:38:06.395Z,75.40
2018-06-02T01:40:34.367Z,75.50
2018-06-02T01:43:02.335Z,75.40
2018-06-02T01:45:29.500Z,75.40
2018-06-02T01:47:56.734Z,75.60
2018-06-02T01:50:24.810Z,75.40
2018-06-02T01:52:53.089Z,75.40
2018-06-02T01:55:21.200Z,75.30
2018-06-02T01:57:49.284Z,75.40
2018-06-02T02:00:17.270Z,75.60
2018-06-02T02:02:45.201Z,75.00
2018-06-02T02:05:12.363Z,75.00
2018-06-02T02:07:40.497Z,75.40
2018-06-02T02:10:07.669Z,75.30
2018-06-02T02:12:35.634Z,75.30
2018-06-02T02:15:02.800Z,75.40
2018-06-02T02:17:30.844Z,75.10
2018-06-02T02:19:58.781Z,75.30
2018-06-02T02:22:26.879Z,75.20
2018-06-02T02:24:55.063Z,75.20
2018-06-02T02:27:23.184Z,75.20
2018-06-02T02:29:52.132Z,75.30
2018-06-02T02:32:20.322Z,75.30
2018-06-02T02:34:48.297Z,75.10
2018-06-02T02:37:16.205Z,75.20
2018-06-02T02:39:44.417Z,75.30
2018-06-02T02:42:12.595Z,75.20
2018-06-02T02:44:40.772Z,75.20
2018-06-02T02:47:07.937Z,75.30
2018-06-02T02:49:36.000Z,75.30
2018-06-02T02:52:04.103Z,75.30
2018-06-02T02:54:32.175Z,75.10
2018-06-02T02:56:59.370Z,75.00
2018-06-02T02:59:26.528Z,75.10
2018-06-02T03:01:53.731Z,75.00
2018-06-02T03:04:21.668Z,75.30
2018-06-02T03:06:49.791Z,74.90
2018-06-02T03:09:18.629Z,75.00
2018-06-02T03:11:46.702Z,75.00
2018-06-02T03:14:13.901Z,75.00
2018-06-02T03:16:42.731Z,75.20
2018-06-02T03:19:09.892Z,75.10
2018-06-02T03:21:37.908Z,75.10
2018-06-02T03:24:07.360Z,75.00
2018-06-02T03:26:35.352Z,75.00
2018-06-02T03:29:03.421Z,75.00
2018-06-02T03:31:30.664Z,75.00
2018-06-02T03:33:57.828Z,75.10
2018-06-02T03:36:25.076Z,75.10
2018-06-02T03:38:52.327Z,75.10
2018-06-02T03:41:20.399Z,75.10
2018-06-02T03:43:47.600Z,75.00
2018-06-02T03:46:15.559Z,75.10
2018-06-02T03:48:42.727Z,75.00
2018-06-02T03:51:10.660Z,75.10
2018-06-02T03:53:37.868Z,75.10
2018-06-02T03:56:05.855Z,75.10
2018-06-02T03:58:33.119Z,75.00
2018-06-02T04:01:00.322Z,75.00
2018-06-02T04:03:28.256Z,75.00
2018-06-02T04:05:56.244Z,75.00
2018-06-02T04:08:23.412Z,75.00
2018-06-02T04:10:51.348Z,74.90
2018-06-02T04:13:18.512Z,74.90
2018-06-02T04:15:45.766Z,75.00
2018-06-02T04:18:13.716Z,75.00
2018-06-02T04:20:40.879Z,75.00
2018-06-02T04:23:08.045Z,75.00
2018-06-02T04:25:35.213Z,75.00
2018-06-02T04:28:03.143Z,75.00
2018-06-02T04:30:30.313Z,75.00
2018-06-02T04:32:57.479Z,75.10
2018-06-02T04:35:24.645Z,75.00
2018-06-02T04:37:52.575Z,75.00
2018-06-02T04:40:19.744Z,75.00
2018-06-02T04:42:46.953Z,74.90
2018-06-02T04:45:14.211Z,75.00
2018-06-02T04:47:41.376Z,75.10
2018-06-02T04:50:08.544Z,75.10
2018-06-02T04:52:35.768Z,75.10
2018-06-02T04:55:02.936Z,75.10
2018-06-02T04:57:30.105Z,75.10
2018-06-02T04:59:57.273Z,75.20
2018-06-02T05:02:25.294Z,75.20
2018-06-02T05:04:52.460Z,75.20
2018-06-02T05:07:20.423Z,75.00
2018-06-02T05:09:47.670Z,75.10
2018-06-02T05:12:14.854Z,75.10
2018-06-02T05:14:43.530Z,75.20
2018-06-02T05:17:10.754Z,75.10
2018-06-02T05:19:37.954Z,75.40
2018-06-02T05:22:06.059Z,75.60
2018-06-02T05:24:33.236Z,75.40
2018-06-02T05:27:00.460Z,75.50
2018-06-02T05:29:27.625Z,75.30
2018-06-02T05:31:54.823Z,75.40
2018-06-02T05:34:21.988Z,75.60
2018-06-02T05:36:49.150Z,75.40
2018-06-02T05:39:17.520Z,75.40
2018-06-02T05:41:44.679Z,75.40
2018-06-02T05:44:13.387Z,75.20
2018-06-02T05:46:40.668Z,75.10
2018-06-02T05:49:07.832Z,75.40
2018-06-02T05:51:35.040Z,75.30
2018-06-02T05:54:03.372Z,75.50
2018-06-02T05:56:30.575Z,75.50
2018-06-02T05:58:57.753Z,75.20
2018-06-02T06:01:24.952Z,75.30
2018-06-02T06:03:52.119Z,75.10
2018-06-02T06:06:20.056Z,78.50
2018-06-02T06:08:47.215Z,78.40
2018-06-02T06:11:14.379Z,78.60
2018-06-02T06:13:42.400Z,79.50
2018-06-02T06:16:10.377Z,79.20
2018-06-02T06:18:38.160Z,79.60
2018-06-02T06:21:05.321Z,79.50
2018-06-02T06:23:32.491Z,79.50
2018-06-02T06:26:01.229Z,79.80
2018-06-02T06:28:28.480Z,79.80
2018-06-02T06:30:56.550Z,79.90
2018-06-02T06:33:24.729Z,78.50
2018-06-02T06:35:52.664Z,79.30
2018-06-02T06:38:20.598Z,79.60
2018-06-02T06:40:49.492Z,80.20
2018-06-02T06:43:16.655Z,80.10
2018-06-02T06:45:44.665Z,79.80
2018-06-02T06:48:11.936Z,79.20
2018-06-02T06:50:39.154Z,78.60
2018-06-02T06:53:07.227Z,79.60
2018-06-02T06:55:35.156Z,79.80
2018-06-02T06:58:02.387Z,79.80
2018-06-02T07:00:29.636Z,79.90
2018-06-02T07:02:57.795Z,80.80
2018-06-02T07:05:25.061Z,80.50
2018-06-02T07:07:52.227Z,79.40
2018-06-02T07:10:19.396Z,79.40
2018-06-02T07:12:46.568Z,79.60
2018-06-02T07:15:24.148Z,79.80
2018-06-02T07:17:57.128Z,79.30
2018-06-02T07:20:24.305Z,80.40
2018-06-02T07:22:52.429Z,78.30
2018-06-02T07:25:19.627Z,79.30
2018-06-02T07:27:46.795Z,79.80
2018-06-02T07:30:14.724Z,79.70
2018-06-02T07:32:41.904Z,79.70
2018-06-02T07:35:09.828Z,81.10
2018-06-02T07:37:36.993Z,80.50
2018-06-02T07:40:04.226Z,79.00
2018-06-02T07:42:31.384Z,79.50
2018-06-02T07:44:58.583Z,80.20
2018-06-02T07:47:26.507Z,79.00
2018-06-02T07:49:53.701Z,78.90
2018-06-02T07:52:20.904Z,79.00
2018-06-02T07:54:48.073Z,80.10
2018-06-02T07:57:15.239Z,79.30
2018-06-02T07:59:42.404Z,80.10
2018-06-02T08:02:11.167Z,79.90
2018-06-02T08:04:38.332Z,79.90
2018-06-02T08:07:06.302Z,80.30
2018-06-02T08:09:33.480Z,80.30
2018-06-02T08:12:01.409Z,79.60
2018-06-02T08:14:28.575Z,79.70
2018-06-02T08:16:55.739Z,78.40
2018-06-02T08:19:23.676Z,78.00
2018-06-02T08:21:50.920Z,78.00
2018-06-02T08:24:18.127Z,78.40
2018-06-02T08:26:46.105Z,78.50
2018-06-02T08:29:13.270Z,78.50
2018-06-02T08:31:41.334Z,78.30
2018-06-02T08:34:08.501Z,77.80
2018-06-02T08:36:35.668Z,77.40
2018-06-02T08:39:02.835Z,77.40
2018-06-02T08:41:29.997Z,77.30
2018-06-02T08:43:57.173Z,77.40
2018-06-02T08:46:25.136Z,77.10
2018-06-02T08:48:52.296Z,77.10
2018-06-02T08:51:20.227Z,76.80
2018-06-02T08:53:47.415Z,76.80
2018-06-02T08:56:15.367Z,76.90
2018-06-02T08:58:42.533Z,76.90
2018-06-02T09:01:10.464Z,76.80
2018-06-02T09:03:37.632Z,76.80
2018-06-02T09:06:04.799Z,76.70
2018-06-02T09:08:31.962Z,76.90
2018-06-02T09:10:59.888Z,76.60
2018-06-02T09:13:27.984Z,76.60
2018-06-02T09:15:55.151Z,76.60
2018-06-02T09:18:23.176Z,76.60
2018-06-02T09:20:50.336Z,76.60
2018-06-02T09:23:18.144Z,76.60
2018-06-02T09:25:46.076Z,77.00
2018-06-02T09:28:13.242Z,77.00
2018-06-02T09:30:40.408Z,77.40
2018-06-02T09:33:08.340Z,80.20
2018-06-02T09:35:35.499Z,80.10
2018-06-02T09:38:02.665Z,80.50
2018-06-02T09:40:29.838Z,80.40
2018-06-02T09:42:57.783Z,79.40
2018-06-02T09:45:24.952Z,79.40
2018-06-02T09:47:52.172Z,79.60
2018-06-02T09:50:19.340Z,79.60
2018-06-02T09:52:46.499Z,79.70
2018-06-02T09:55:13.667Z,79.30
2018-06-02T09:57:40.863Z,79.00
2018-06-02T10:00:08.040Z,78.50
2018-06-02T10:02:35.967Z,78.40
2018-06-02T10:05:03.152Z,78.40
2018-06-02T10:07:30.329Z,78.20
2018-06-02T10:09:57.555Z,78.10
2018-06-02T10:12:24.716Z,78.10
2018-06-02T10:14:51.875Z,78.00
2018-06-02T10:17:19.040Z,78.00
2018-06-02T10:19:46.206Z,77.80
2018-06-02T10:22:14.140Z,77.60
2018-06-02T10:24:42.303Z,77.60
2018-06-02T10:27:10.252Z,77.70
2018-06-02T10:29:37.433Z,77.70
2018-06-02T10:32:04.611Z,77.70
2018-06-02T10:34:31.830Z,77.80
2018-06-02T10:36:59.767Z,77.70
2018-06-02T10:39:28.725Z,77.60
2018-06-02T10:41:57.959Z,77.60
2018-06-02T10:44:25.241Z,77.90
2018-06-02T10:46:52.408Z,78.10
2018-06-02T10:49:19.568Z,77.80
2018-06-02T10:51:47.539Z,77.60
2018-06-02T10:54:16.061Z,77.60
2018-06-02T10:56:44.028Z,78.50
2018-06-02T10:59:12.099Z,78.00
2018-06-02T11:01:41.251Z,78.70
2018-06-02T11:04:08.420Z,77.90
2018-06-02T11:06:35.584Z,77.80
2018-06-02T11:09:02.810Z,77.70
2018-06-02T11:11:29.975Z,77.70
2018-06-02T11:13:57.174Z,77.80
2018-06-02T11:16:25.105Z,77.90
2018-06-02T11:18:53.094Z,77.80
2018-06-02T11:21:20.265Z,78.10
2018-06-02T11:23:49.047Z,78.40
2018-06-02T11:26:17.096Z,78.50
2018-06-02T11:28:44.301Z,78.40
2018-06-02T11:31:12.280Z,78.50
2018-06-02T11:33:39.484Z,78.50
2018-06-02T11:36:06.651Z,78.20
2018-06-02T11:38:34.868Z,78.20
2018-06-02T11:41:02.893Z,78.20
2018-06-02T11:43:30.868Z,78.30
2018-06-02T11:45:58.799Z,78.40
2018-06-02T11:48:26.008Z,78.40
2018-06-02T11:50:53.172Z,78.30
2018-06-02T11:53:21.148Z,78.50
2018-06-02T11:55:48.399Z,78.30
2018-06-02T11:58:15.604Z,78.30
2018-06-02T12:00:43.547Z,78.20
2018-06-02T12:03:11.705Z,78.10
2018-06-02T12:05:39.956Z,78.00
2018-06-02T12:08:07.232Z,78.10
2018-06-02T12:10:34.488Z,78.00
2018-06-02T12:13:02.588Z,77.90
2018-06-02T12:15:30.716Z,78.00
2018-06-02T12:17:57.881Z,77.90
2018-06-02T12:20:25.835Z,77.90
2018-06-02T12:22:53.112Z,77.80
2018-06-02T12:25:20.322Z,77.80
2018-06-02T12:27:49.064Z,77.80
2018-06-02T12:30:16.267Z,77.80
2018-06-02T12:32:45.093Z,77.80
2018-06-02T12:35:12.348Z,77.80
2018-06-02T12:37:39.520Z,77.80
2018-06-02T12:40:06.689Z,77.70
2018-06-02T12:42:33.897Z,77.70
2018-06-02T12:45:01.060Z,78.60
2018-06-02T12:47:28.225Z,78.40
2018-06-02T12:49:55.385Z,77.90
2018-06-02T12:52:22.645Z,77.80
2018-06-02T12:54:49.859Z,77.80
2018-06-02T12:57:17.028Z,77.50
2018-06-02T12:59:44.260Z,77.40
2018-06-02T13:02:12.379Z,77.50
2018-06-02T13:04:39.592Z,77.70
2018-06-02T13:07:06.756Z,77.60
2018-06-02T13:09:33.923Z,77.60
2018-06-02T13:12:01.147Z,77.60
2018-06-02T13:14:28.400Z,77.50
2018-06-02T13:16:55.603Z,77.40
2018-06-02T13:19:22.760Z,77.50
2018-06-02T13:21:50.692Z,77.50
2018-06-02T13:24:17.926Z,77.50
2018-06-02T13:26:45.128Z,77.50
2018-06-02T13:29:13.145Z,77.40
2018-06-02T13:31:40.303Z,78.00
2018-06-02T13:34:08.514Z,77.40
2018-06-02T13:36:35.688Z,78.20
2018-06-02T13:39:03.623Z,77.60
2018-06-02T13:41:31.128Z,77.60
2018-06-02T13:43:59.114Z,77.60
2018-06-02T13:46:26.286Z,77.80
2018-06-02T13:48:54.456Z,77.50
2018-06-02T13:51:21.647Z,77.50
2018-06-02T13:53:49.751Z,77.60
2018-06-02T13:56:17.044Z,77.80
2018-06-02T13:58:45.213Z,78.10
2018-06-02T14:01:13.383Z,77.60
2018-06-02T14:03:40.593Z,77.70
2018-06-02T14:06:08.522Z,77.50
2018-06-02T14:08:36.632Z,77.50
2018-06-02T14:11:04.562Z,77.30
2018-06-02T14:13:31.775Z,77.30
2018-06-02T14:15:59.060Z,77.90
2018-06-02T14:18:26.226Z,77.40
2018-06-02T14:20:53.431Z,77.10
2018-06-02T14:23:20.592Z,77.20
2018-06-02T14:25:48.647Z,76.60
2018-06-02T14:28:17.474Z,76.80
2018-06-02T14:30:44.642Z,76.80
2018-06-02T14:33:12.139Z,76.80
2018-06-02T14:35:42.368Z,76.90
2018-06-02T14:38:09.774Z,76.90
2018-06-02T14:40:36.948Z,77.00
2018-06-02T14:43:04.116Z,76.80
2018-06-02T14:45:32.143Z,76.80
2018-06-02T14:47:59.391Z,76.80
2018-06-02T14:50:26.587Z,76.90
2018-06-02T14:52:53.779Z,76.90
2018-06-02T14:55:21.001Z,76.80
2018-06-02T14:57:49.703Z,76.80
2018-06-02T15:00:18.575Z,77.70
2018-06-02T15:02:47.419Z,76.80
2018-06-02T15:05:14.588Z,76.70
2018-06-02T15:07:41.753Z,76.60
2018-06-02T15:10:08.972Z,76.50
2018-06-02T15:12:37.146Z,76.60
2018-06-02T15:15:05.103Z,76.40
2018-06-02T15:17:32.268Z,76.40
2018-06-02T15:19:59.437Z,76.80
2018-06-02T15:22:26.675Z,76.50
2018-06-02T15:24:54.561Z,76.50
2018-06-02T15:27:21.790Z,76.40
2018-06-02T15:29:48.996Z,76.40
2018-06-02T15:32:16.207Z,76.70
2018-06-02T15:34:43.482Z,76.30
2018-06-02T15:37:12.138Z,76.30
2018-06-02T15:39:40.145Z,76.60
2018-06-02T15:42:07.947Z,76.60
2018-06-02T15:44:35.184Z,76.00
2018-06-02T15:47:03.115Z,76.90
2018-06-02T15:49:31.213Z,76.80
2018-06-02T15:51:59.187Z,76.70
2018-06-02T15:54:26.499Z,76.70
2018-06-02T15:56:53.672Z,76.70
2018-06-02T15:59:20.913Z,76.80
2018-06-02T16:01:48.884Z,76.80
2018-06-02T16:04:16.217Z,76.70
2018-06-02T16:06:43.588Z,76.70
2018-06-02T16:09:10.750Z,76.70
2018-06-02T16:11:38.807Z,76.60
2018-06-02T16:14:05.968Z,76.80
2018-06-02T16:16:33.179Z,76.80
2018-06-02T16:19:01.112Z,77.00
2018-06-02T16:21:29.047Z,76.90
2018-06-02T16:23:56.212Z,76.90
2018-06-02T16:26:24.143Z,76.70
2018-06-02T16:28:51.325Z,76.70
2018-06-02T16:31:19.292Z,76.80
2018-06-02T16:33:46.515Z,76.90
2018-06-02T16:36:14.512Z,76.70
2018-06-02T16:38:41.716Z,76.80
2018-06-02T16:41:09.641Z,76.80
2018-06-02T16:43:36.844Z,76.90
2018-06-02T16:46:04.776Z,76.80
2018-06-02T16:48:31.940Z,76.80
2018-06-02T16:50:59.098Z,76.80
2018-06-02T16:53:26.259Z,76.80
2018-06-02T16:55:53.427Z,76.80
2018-06-02T16:58:21.365Z,76.80
2018-06-02T17:00:48.832Z,76.80
2018-06-02T17:03:16.795Z,76.80
2018-06-02T17:05:44.885Z,76.60
2018-06-02T17:08:12.993Z,76.70
2018-06-02T17:10:40.158Z,76.90
2018-06-02T17:13:07.329Z,76.80
2018-06-02T17:15:34.495Z,76.60
2018-06-02T17:18:01.719Z,76.90
2018-06-02T17:20:28.885Z,76.60
2018-06-02T17:22:56.089Z,76.90
2018-06-02T17:25:24.641Z,77.30
2018-06-02T17:27:51.799Z,77.30
2018-06-02T17:30:18.964Z,77.10
2018-06-02T17:32:46.980Z,77.50
2018-06-02T17:35:14.155Z,77.50
2018-06-02T17:37:41.320Z,77.40
2018-06-02T17:40:08.638Z,77.30
2018-06-02T17:42:35.890Z,77.70
2018-06-02T17:45:03.100Z,77.30
2018-06-02T17:47:31.122Z,77.90
2018-06-02T17:49:59.515Z,77.90
2018-06-02T17:52:26.685Z,77.60
2018-06-02T17:54:53.851Z,77.50
2018-06-02T17:57:21.873Z,77.10
2018-06-02T17:59:49.045Z,77.10
2018-06-02T18:02:16.212Z,76.80
2018-06-02T18:04:44.879Z,76.60
2018-06-02T18:07:12.050Z,76.60
2018-06-02T18:09:39.212Z,76.30
2018-06-02T18:12:07.231Z,76.40
2018-06-02T18:14:34.400Z,76.40
2018-06-02T18:17:01.604Z,76.60
2018-06-02T18:19:28.771Z,76.40
2018-06-02T18:21:55.976Z,76.20
2018-06-02T18:24:23.148Z,76.40
2018-06-02T18:26:51.125Z,76.10
2018-06-02T18:29:19.096Z,76.30
2018-06-02T18:31:47.027Z,76.30
2018-06-02T18:34:15.040Z,76.20
2018-06-02T18:36:43.772Z,76.30
2018-06-02T18:39:11.617Z,76.10
2018-06-02T18:41:38.780Z,76.20
2018-06-02T18:44:05.949Z,76.10
2018-06-02T18:46:33.114Z,75.90
2018-06-02T18:49:00.285Z,76.10
2018-06-02T18:51:28.260Z,75.90
2018-06-02T18:53:56.302Z,75.90
2018-06-02T18:56:24.520Z,75.90
2018-06-02T18:58:52.637Z,76.00
2018-06-02T19:01:19.928Z,76.00
2018-06-02T19:03:47.866Z,76.00
2018-06-02T19:06:15.068Z,76.00
2018-06-02T19:08:42.323Z,76.00
2018-06-02T19:11:10.276Z,75.80
2018-06-02T19:13:39.163Z,75.60
2018-06-02T19:16:08.007Z,76.30
2018-06-02T19:18:35.209Z,75.80
2018-06-02T19:21:03.149Z,75.80
2018-06-02T19:23:30.422Z,75.80
2018-06-02T19:25:58.371Z,76.40
2018-06-02T19:28:25.579Z,75.90
2018-06-02T19:30:52.827Z,75.90
2018-06-02T19:33:20.979Z,75.80
2018-06-02T19:35:49.822Z,75.30
2018-06-02T19:38:17.032Z,75.80
2018-06-02T19:40:45.719Z,75.80
2018-06-02T19:43:13.649Z,75.60
2018-06-02T19:45:41.608Z,75.50
2018-06-02T19:48:08.883Z,75.80
2018-06-02T19:50:36.045Z,75.70
2018-06-02T19:53:03.217Z,75.70
2018-06-02T19:55:31.359Z,75.80
2018-06-02T19:57:58.881Z,75.80
2018-06-02T20:00:26.248Z,75.80
2018-06-02T20:02:54.861Z,75.50
2018-06-02T20:05:22.878Z,75.60
2018-06-02T20:07:50.566Z,75.60
2018-06-02T20:10:17.907Z,75.80
2018-06-02T20:12:45.100Z,75.70
2018-06-02T20:15:13.056Z,75.80
2018-06-02T20:17:40.215Z,75.70
2018-06-02T20:20:07.381Z,75.80
2018-06-02T20:22:34.602Z,75.60
2018-06-02T20:25:01.764Z,75.70
2018-06-02T20:27:29.022Z,75.80
2018-06-02T20:29:56.278Z,75.70
2018-06-02T20:32:23.536Z,75.80
2018-06-02T20:34:51.163Z,76.40
2018-06-02T20:37:18.581Z,75.70
2018-06-02T20:39:46.865Z,75.60
2018-06-02T20:42:14.864Z,75.70
2018-06-02T20:44:42.930Z,75.60
2018-06-02T20:47:10.996Z,75.60
2018-06-02T20:49:39.064Z,75.60
2018-06-02T20:52:07.925Z,75.60
2018-06-02T20:54:35.126Z,75.60
2018-06-02T20:57:02.409Z,75.60
2018-06-02T20:59:29.728Z,75.50
2018-06-02T21:01:56.898Z,75.50
2018-06-02T21:04:24.259Z,75.50
2018-06-02T21:06:51.876Z,75.60
2018-06-02T21:09:20.667Z,75.40
2018-06-02T21:11:49.028Z,75.70
2018-06-02T21:14:16.275Z,75.60
2018-06-02T21:16:44.525Z,75.50
2018-06-02T21:19:11.720Z,75.50
2018-06-02T21:21:39.011Z,75.50
2018-06-02T21:24:08.612Z,75.40
2018-06-02T21:26:37.535Z,75.40
2018-06-02T21:29:05.633Z,75.40
2018-06-02T21:31:32.909Z,75.40
2018-06-02T21:34:00.635Z,75.40
2018-06-02T21:36:28.623Z,75.40
2018-06-02T21:38:56.655Z,75.40
2018-06-02T21:41:23.940Z,75.40
2018-06-02T21:43:51.112Z,75.50
2018-06-02T21:46:18.276Z,75.30
2018-06-02T21:48:47.156Z,75.50
2018-06-02T21:51:16.004Z,75.60
2018-06-02T21:53:44.108Z,75.40
2018-06-02T21:56:11.272Z,75.50
2018-06-02T21:58:38.436Z,75.40
2018-06-02T22:01:06.360Z,75.60
2018-06-02T22:03:33.523Z,75.50
2018-06-02T22:06:00.688Z,75.40
2018-06-02T22:08:27.843Z,75.60
2018-06-02T22:10:55.804Z,75.50
2018-06-02T22:13:22.976Z,76.10
2018-06-02T22:15:50.943Z,75.50
2018-06-02T22:18:18.874Z,75.50
2018-06-02T22:20:46.952Z,75.50
2018-06-02T22:23:15.257Z,75.50
2018-06-02T22:25:45.336Z,75.40
2018-06-02T22:28:12.717Z,75.40
2018-06-02T22:30:40.217Z,75.50
2018-06-02T22:33:10.022Z,75.50
2018-06-02T22:35:39.059Z,75.50
2018-06-02T22:38:07.128Z,75.40
2018-06-02T22:40:34.941Z,75.60
2018-06-02T22:43:02.146Z,75.60
2018-06-02T22:45:29.317Z,75.60
2018-06-02T22:47:56.473Z,75.70
2018-06-02T22:50:23.638Z,75.50
2018-06-02T22:52:50.795Z,75.60
2018-06-02T22:55:18.888Z,75.30
2018-06-02T22:57:46.823Z,75.40
2018-06-02T23:00:17.995Z,75.40
2018-06-02T23:02:45.956Z,75.60
2018-06-02T23:05:13.120Z,75.60
2018-06-02T23:07:41.048Z,75.30
2018-06-02T23:10:08.389Z,75.30
2018-06-02T23:12:35.622Z,75.50
2018-06-02T23:15:02.796Z,75.60
2018-06-02T23:17:30.003Z,75.50
2018-06-02T23:19:57.987Z,75.60
2018-06-02T23:22:31.098Z,75.60
2018-06-02T23:24:59.291Z,75.60
2018-06-02T23:27:26.578Z,75.50
2018-06-02T23:29:54.639Z,75.70
2018-06-02T23:32:22.784Z,75.60
2018-06-02T23:34:50.121Z,75.60
2018-06-02T23:37:17.407Z,75.70
2018-06-02T23:39:44.697Z,75.50
2018-06-02T23:42:13.736Z,75.50
2018-06-02T23:44:40.915Z,75.40
2018-06-02T23:47:08.081Z,75.50
2018-06-02T23:49:35.245Z,75.40
2018-06-02T23:52:02.403Z,75.50
2018-06-02T23:54:30.442Z,75.40
2018-06-02T23:56:58.966Z,75.40
2018-06-02T23:59:27.021Z,75.40
